Ferdinand, Idaho
Current Conditions -  °F | °C
As of 2:35 AM on Saturday 25 Oct 2014 (Local Time) from KGIC Reporting Station
Overcast Overcast  
Wind Chill:   Ceiling: 300
Heat Index:   Visibility: 0.25mi
Dew Point:   Wind: 3mph
Humidity: 95%   Direction: 180°S
Pressure: 29.91"   Gusts: NA
Location:  46.15°N, 116.39°W
Report Text: KGIC 250935Z AUTO 18003KT 1/4SM OVC003 06/06 A2991 RMK AO1 T00640056
Loading
Personal Weather Stations






























Interactive Weather Map
Tropical Storm Tracking
New forecast layout! Learn more

10-Day Weather Forecast

Advertisements
Track Severe Weather on mobile